createdAt,value
2018-05-31T05:49:43.841Z,2352.00
2018-05-31T05:50:43.704Z,2312.00
2018-05-31T05:51:43.622Z,2340.00
2018-05-31T05:52:43.545Z,2376.00
2018-05-31T05:53:43.467Z,2424.00
2018-05-31T05:54:43.389Z,2476.00
2018-05-31T05:55:43.313Z,2516.00
2018-05-31T05:56:43.235Z,2524.00
2018-05-31T05:57:43.160Z,2544.00
2018-05-31T05:58:43.082Z,2568.00
2018-05-31T05:59:43.012Z,2604.00
2018-05-31T06:00:42.937Z,2620.00
2018-05-31T06:01:42.860Z,2656.00
2018-05-31T06:02:42.786Z,2632.00
2018-05-31T06:03:42.711Z,2580.00
2018-05-31T06:04:42.639Z,2520.00
2018-05-31T06:05:42.566Z,2616.00
2018-05-31T06:06:42.492Z,2620.00
2018-05-31T06:07:42.419Z,2572.00
2018-05-31T06:08:42.347Z,2600.00
2018-05-31T06:09:42.272Z,2612.00
2018-05-31T06:10:42.204Z,2572.00
2018-05-31T06:11:42.128Z,2568.00
2018-05-31T06:12:42.064Z,2556.00
2018-05-31T06:13:42.039Z,2648.00
2018-05-31T06:14:41.984Z,2612.00
2018-05-31T06:15:41.844Z,2632.00
2018-05-31T06:16:41.768Z,2604.00
2018-05-31T06:17:41.700Z,2680.00
2018-05-31T06:18:41.628Z,2668.00
2018-05-31T06:19:41.603Z,2612.00
2018-05-31T06:20:41.487Z,2680.00
2018-05-31T06:21:41.413Z,2784.00
2018-05-31T06:22:41.341Z,2792.00
2018-05-31T06:23:41.271Z,2628.00
2018-05-31T06:24:41.199Z,2500.00
2018-05-31T06:25:41.131Z,2424.00
2018-05-31T06:26:41.064Z,2464.00
2018-05-31T06:27:40.987Z,2648.00
2018-05-31T06:28:40.918Z,2708.00
2018-05-31T06:29:40.873Z,2928.00
2018-05-31T06:30:40.773Z,2928.00
2018-05-31T06:31:41.479Z,2916.00
2018-05-31T06:32:40.643Z,2912.00
2018-05-31T06:33:40.565Z,2956.00
2018-05-31T06:34:40.493Z,2868.00
2018-05-31T06:35:40.424Z,2948.00
2018-05-31T06:36:40.362Z,2980.00
2018-05-31T06:37:40.285Z,3016.00
2018-05-31T06:38:40.213Z,3004.00
2018-05-31T06:39:40.146Z,3036.00
2018-05-31T06:40:40.071Z,3080.00
2018-05-31T06:41:40.002Z,3060.00
2018-05-31T06:42:39.932Z,3096.00
2018-05-31T06:43:39.867Z,3124.00
2018-05-31T06:44:39.792Z,3088.00
2018-05-31T06:45:39.726Z,3064.00
2018-05-31T06:46:39.653Z,3004.00
2018-05-31T06:47:39.582Z,3052.00
2018-05-31T06:48:39.513Z,3020.00
2018-05-31T06:49:39.441Z,3020.00
2018-05-31T06:50:39.372Z,3036.00
2018-05-31T06:51:39.302Z,2540.00
2018-05-31T06:52:39.234Z,2968.00
2018-05-31T06:53:39.168Z,3040.00
2018-05-31T06:54:39.097Z,3104.00
2018-05-31T06:55:39.023Z,3160.00
2018-05-31T06:56:38.954Z,3180.00
2018-05-31T06:57:38.883Z,3060.00
2018-05-31T06:58:38.825Z,3076.00
2018-05-31T06:59:38.748Z,3036.00
2018-05-31T07:00:38.675Z,3144.00
2018-05-31T07:01:38.607Z,3172.00
2018-05-31T07:02:38.534Z,3232.00
2018-05-31T07:03:38.465Z,3240.00
2018-05-31T07:04:38.414Z,3180.00
2018-05-31T07:05:38.327Z,3196.00
2018-05-31T07:06:38.258Z,3216.00
2018-05-31T07:07:38.190Z,3236.00
2018-05-31T07:08:38.120Z,3272.00
2018-05-31T07:09:38.053Z,3272.00
2018-05-31T07:10:37.983Z,3244.00
2018-05-31T07:11:37.913Z,3272.00
2018-05-31T07:12:37.844Z,3264.00
2018-05-31T07:13:37.778Z,3300.00
2018-05-31T07:14:37.720Z,3296.00
2018-05-31T07:15:37.635Z,3284.00
2018-05-31T07:16:37.566Z,3268.00
2018-05-31T07:17:37.497Z,3228.00
2018-05-31T07:18:37.428Z,3204.00
2018-05-31T07:19:37.359Z,3216.00
2018-05-31T07:20:37.291Z,3276.00
2018-05-31T07:21:37.219Z,3236.00
2018-05-31T07:22:37.151Z,3256.00
2018-05-31T07:23:37.081Z,3268.00
2018-05-31T07:24:37.015Z,3244.00
2018-05-31T07:25:36.949Z,3292.00
2018-05-31T07:26:36.881Z,3344.00
2018-05-31T07:27:36.807Z,3336.00
2018-05-31T07:28:36.738Z,3348.00
2018-05-31T07:29:36.671Z,3364.00
2018-05-31T07:30:36.600Z,3352.00
2018-05-31T07:31:36.532Z,3360.00
2018-05-31T07:32:36.469Z,3388.00
2018-05-31T07:33:36.397Z,3388.00
2018-05-31T07:34:36.332Z,3404.00
2018-05-31T07:35:36.258Z,3400.00
2018-05-31T07:36:36.202Z,3420.00
2018-05-31T07:37:36.123Z,3420.00
2018-05-31T07:38:36.057Z,3416.00
2018-05-31T07:39:35.985Z,3384.00
2018-05-31T07:40:35.910Z,3384.00
2018-05-31T07:41:35.842Z,3368.00
2018-05-31T07:42:35.774Z,3352.00
2018-05-31T07:43:35.705Z,3324.00
2018-05-31T07:44:35.640Z,3260.00
2018-05-31T07:45:35.566Z,3260.00
2018-05-31T07:46:35.498Z,3312.00
2018-05-31T07:47:35.429Z,3308.00
2018-05-31T07:48:35.361Z,3180.00
2018-05-31T07:49:35.293Z,3240.00
2018-05-31T07:50:35.221Z,3188.00
2018-05-31T07:51:35.154Z,3300.00
2018-05-31T07:52:35.086Z,3344.00
2018-05-31T07:53:35.018Z,3376.00
2018-05-31T07:54:34.950Z,3408.00
2018-05-31T07:55:34.885Z,3444.00
2018-05-31T07:56:34.814Z,3492.00
2018-05-31T07:57:34.741Z,3516.00
2018-05-31T07:58:34.673Z,3512.00
2018-05-31T07:59:34.606Z,3552.00
2018-05-31T08:00:34.537Z,3668.00
2018-05-31T08:01:34.471Z,3500.00
2018-05-31T08:02:34.399Z,3820.00
2018-05-31T08:03:34.331Z,3788.00
2018-05-31T08:04:34.270Z,3812.00
2018-05-31T08:05:34.196Z,3164.00
2018-05-31T08:06:34.123Z,3828.00
2018-05-31T08:07:34.058Z,3844.00
2018-05-31T08:08:33.987Z,3864.00
2018-05-31T08:09:33.921Z,3296.00
2018-05-31T08:10:33.853Z,3872.00
2018-05-31T08:11:33.783Z,3904.00
2018-05-31T08:12:33.733Z,3916.00
2018-05-31T08:13:33.647Z,3956.00
2018-05-31T08:14:33.576Z,3712.00
2018-05-31T08:15:33.511Z,3612.00
2018-05-31T08:16:33.445Z,3604.00
2018-05-31T08:17:33.373Z,3324.00
2018-05-31T08:18:33.303Z,3084.00
2018-05-31T08:19:33.237Z,3632.00
2018-05-31T08:20:33.169Z,3556.00
2018-05-31T08:21:33.103Z,3592.00
2018-05-31T08:22:33.031Z,3516.00
2018-05-31T08:23:32.961Z,3472.00
2018-05-31T08:24:32.896Z,3452.00
2018-05-31T08:25:32.828Z,3436.00
2018-05-31T08:26:32.758Z,3432.00
2018-05-31T08:27:32.694Z,3440.00
2018-05-31T08:28:32.629Z,3440.00
2018-05-31T08:29:32.555Z,3452.00
2018-05-31T08:30:32.489Z,3484.00
2018-05-31T08:31:32.447Z,3508.00
2018-05-31T08:32:32.350Z,3520.00
2018-05-31T08:33:32.282Z,3532.00
2018-05-31T08:34:32.216Z,3552.00
2018-05-31T08:35:32.146Z,3568.00
2018-05-31T08:36:32.080Z,3560.00
2018-05-31T08:37:32.009Z,3556.00
2018-05-31T08:38:31.948Z,2096.00
2018-05-31T08:39:31.876Z,3512.00
2018-05-31T08:40:31.805Z,3604.00
2018-05-31T08:41:31.740Z,3600.00
2018-05-31T08:42:31.673Z,3616.00
2018-05-31T08:43:31.601Z,3632.00
2018-05-31T08:44:31.534Z,3644.00
2018-05-31T08:45:31.465Z,3652.00
2018-05-31T08:46:31.396Z,3660.00
2018-05-31T08:47:31.330Z,3664.00
2018-05-31T08:48:31.272Z,3668.00
2018-05-31T08:49:31.194Z,3668.00
2018-05-31T08:50:31.126Z,3664.00
2018-05-31T08:51:31.061Z,3656.00
2018-05-31T08:52:30.994Z,3656.00
2018-05-31T08:53:30.922Z,3652.00
2018-05-31T08:54:30.853Z,3652.00
2018-05-31T08:55:30.786Z,3660.00
2018-05-31T08:56:30.725Z,3664.00
2018-05-31T08:57:30.666Z,3680.00
2018-05-31T08:58:30.590Z,3688.00
2018-05-31T08:59:30.516Z,3696.00
2018-05-31T09:00:30.449Z,3704.00
2018-05-31T09:01:30.383Z,3700.00
2018-05-31T09:02:30.311Z,3696.00
2018-05-31T09:03:30.243Z,3704.00
2018-05-31T09:04:30.175Z,3704.00
2018-05-31T09:05:30.108Z,3704.00
2018-05-31T09:06:30.039Z,3688.00
2018-05-31T09:07:29.976Z,3676.00
2018-05-31T09:08:29.907Z,3684.00
2018-05-31T09:09:29.882Z,3188.00
2018-05-31T09:10:29.767Z,3700.00
2018-05-31T09:11:29.703Z,3720.00
2018-05-31T09:12:29.655Z,3728.00
2018-05-31T09:13:29.566Z,3740.00
2018-05-31T09:14:29.500Z,3756.00
2018-05-31T09:15:29.433Z,3768.00
2018-05-31T09:16:29.362Z,3776.00
2018-05-31T09:17:29.294Z,3788.00
2018-05-31T09:18:29.226Z,3796.00
2018-05-31T09:19:29.166Z,3808.00
2018-05-31T09:20:29.091Z,3820.00
2018-05-31T09:21:29.023Z,3824.00
2018-05-31T09:22:28.954Z,3836.00
2018-05-31T09:23:28.939Z,3840.00
2018-05-31T09:24:28.820Z,3856.00
2018-05-31T09:25:28.750Z,3864.00
2018-05-31T09:26:28.686Z,3888.00
2018-05-31T09:27:28.616Z,3908.00
2018-05-31T09:28:28.567Z,3916.00
2018-05-31T09:29:28.481Z,3928.00
2018-05-31T09:30:28.415Z,3940.00
2018-05-31T09:31:28.346Z,3956.00
2018-05-31T09:32:28.275Z,3964.00
2018-05-31T09:33:28.209Z,3972.00
2018-05-31T09:34:28.158Z,3980.00
2018-05-31T09:35:28.074Z,3816.00
2018-05-31T09:36:28.007Z,3872.00
2018-05-31T09:37:27.938Z,3960.00
2018-05-31T09:38:27.881Z,3976.00
2018-05-31T09:39:27.947Z,3996.00
2018-05-31T09:40:27.739Z,4016.00
2018-05-31T09:41:27.667Z,4040.00
2018-05-31T09:42:27.604Z,4064.00
2018-05-31T09:43:27.532Z,4088.00
2018-05-31T09:44:27.468Z,4108.00
2018-05-31T09:45:27.399Z,4120.00
2018-05-31T09:46:27.329Z,4124.00
2018-05-31T09:47:27.262Z,4128.00
2018-05-31T09:48:27.194Z,4136.00
2018-05-31T09:49:27.133Z,4140.00
2018-05-31T09:50:27.061Z,4148.00
2018-05-31T09:51:26.994Z,4148.00
2018-05-31T09:52:26.927Z,4164.00
2018-05-31T09:53:26.859Z,4172.00
2018-05-31T09:54:26.789Z,4096.00
2018-05-31T09:55:26.724Z,4164.00
2018-05-31T09:56:26.687Z,4244.00
2018-05-31T09:57:26.588Z,4276.00
2018-05-31T09:58:26.521Z,4316.00
2018-05-31T09:59:26.457Z,4360.00
2018-05-31T10:00:26.387Z,4392.00
2018-05-31T10:01:26.320Z,4416.00
2018-05-31T10:02:26.273Z,4432.00
2018-05-31T10:03:26.198Z,4440.00
2018-05-31T10:04:26.123Z,4440.00
2018-05-31T10:05:26.051Z,4388.00
2018-05-31T10:06:25.980Z,4460.00
2018-05-31T10:07:25.918Z,4452.00
2018-05-31T10:08:25.850Z,4472.00
2018-05-31T10:09:25.779Z,4468.00
2018-05-31T10:10:25.711Z,4512.00
2018-05-31T10:11:25.645Z,4516.00
2018-05-31T10:12:25.577Z,4552.00
2018-05-31T10:13:25.512Z,4540.00
2018-05-31T10:14:25.442Z,4132.00
2018-05-31T10:15:25.376Z,3724.00
2018-05-31T10:16:25.309Z,3700.00
2018-05-31T10:17:25.240Z,4652.00
2018-05-31T10:18:25.195Z,4716.00
2018-05-31T10:19:25.107Z,4744.00
2018-05-31T10:20:25.049Z,4780.00
2018-05-31T10:21:24.973Z,4808.00
2018-05-31T10:22:24.903Z,4852.00
2018-05-31T10:23:24.836Z,4892.00
2018-05-31T10:24:24.770Z,4932.00
2018-05-31T10:25:24.729Z,4952.00
2018-05-31T10:26:24.636Z,4988.00
2018-05-31T10:27:24.567Z,5016.00
2018-05-31T10:28:24.500Z,5028.00
2018-05-31T10:29:24.436Z,5044.00
2018-05-31T10:30:24.370Z,5056.00
2018-05-31T10:31:24.302Z,5108.00
2018-05-31T10:32:24.230Z,5156.00
2018-05-31T10:33:24.169Z,5196.00
2018-05-31T10:34:24.097Z,5280.00
2018-05-31T10:35:24.031Z,5388.00
2018-05-31T10:36:23.965Z,5492.00
2018-05-31T10:37:23.897Z,5620.00
2018-05-31T10:38:23.829Z,5740.00
2018-05-31T10:39:23.780Z,5804.00
2018-05-31T10:40:23.696Z,5868.00
2018-05-31T10:41:23.629Z,5932.00
2018-05-31T10:42:23.561Z,5992.00
2018-05-31T10:43:23.497Z,6028.00
2018-05-31T10:44:23.429Z,6048.00
2018-05-31T10:45:23.362Z,6072.00
2018-05-31T10:46:23.343Z,6100.00
2018-05-31T10:47:23.235Z,6092.00
2018-05-31T10:48:23.162Z,6048.00
2018-05-31T10:49:23.094Z,6048.00
2018-05-31T10:50:23.054Z,6060.00
2018-05-31T10:51:22.961Z,6192.00
2018-05-31T10:52:22.894Z,6264.00
2018-05-31T10:53:22.828Z,6332.00
2018-05-31T10:54:22.763Z,6368.00
2018-05-31T10:55:22.694Z,6384.00
2018-05-31T10:56:22.628Z,6340.00
2018-05-31T10:57:22.573Z,6376.00
2018-05-31T10:58:22.496Z,6432.00
2018-05-31T10:59:22.431Z,6508.00
2018-05-31T11:00:22.362Z,6576.00
2018-05-31T11:01:22.300Z,6640.00
2018-05-31T11:02:22.229Z,6644.00
2018-05-31T11:03:22.162Z,6676.00
2018-05-31T11:04:22.106Z,6708.00
2018-05-31T11:05:22.032Z,6716.00
2018-05-31T11:06:21.964Z,6712.00
2018-05-31T11:07:21.896Z,6688.00
2018-05-31T11:08:21.839Z,6712.00
2018-05-31T11:09:21.770Z,6752.00
2018-05-31T11:10:21.698Z,6820.00
2018-05-31T11:11:21.637Z,6868.00
2018-05-31T11:12:21.585Z,6896.00
2018-05-31T11:13:21.502Z,6912.00
2018-05-31T11:14:21.435Z,6928.00
2018-05-31T11:15:21.368Z,6920.00
2018-05-31T11:16:21.303Z,6952.00
2018-05-31T11:17:21.235Z,7012.00
2018-05-31T11:18:21.171Z,7112.00
2018-05-31T11:19:21.105Z,7204.00
2018-05-31T11:20:21.039Z,7292.00
2018-05-31T11:21:20.973Z,7376.00
2018-05-31T11:22:20.904Z,7456.00
2018-05-31T11:23:20.840Z,7480.00
2018-05-31T11:24:20.777Z,7512.00
2018-05-31T11:25:20.709Z,7528.00
2018-05-31T11:26:20.642Z,7544.00
2018-05-31T11:27:20.575Z,7560.00
2018-05-31T11:28:20.512Z,7564.00
2018-05-31T11:29:20.536Z,7604.00
2018-05-31T11:30:20.380Z,7656.00
2018-05-31T11:31:20.322Z,7604.00
2018-05-31T11:32:20.257Z,6816.00
2018-05-31T11:33:20.186Z,6848.00
2018-05-31T11:34:20.118Z,6848.00
2018-05-31T11:35:20.057Z,6884.00
2018-05-31T11:36:19.988Z,6928.00
2018-05-31T11:37:19.923Z,6996.00
2018-05-31T11:38:19.859Z,7028.00
2018-05-31T11:39:19.794Z,7076.00
2018-05-31T11:40:19.726Z,7124.00
2018-05-31T11:41:19.661Z,7196.00
2018-05-31T11:42:19.601Z,7224.00
2018-05-31T11:43:19.528Z,7228.00
2018-05-31T11:44:19.464Z,7260.00
2018-05-31T11:45:19.398Z,7296.00
2018-05-31T11:46:19.333Z,7384.00
2018-05-31T11:47:19.268Z,7460.00
2018-05-31T11:48:19.203Z,7540.00
2018-05-31T11:49:19.136Z,7596.00
2018-05-31T11:50:19.071Z,7692.00
2018-05-31T11:51:19.009Z,7708.00
2018-05-31T11:52:18.942Z,7764.00
2018-05-31T11:53:18.901Z,7768.00
2018-05-31T11:54:18.829Z,7784.00
2018-05-31T11:55:18.747Z,7812.00
2018-05-31T11:56:18.729Z,7840.00
2018-05-31T11:57:18.614Z,7972.00
2018-05-31T11:58:18.549Z,8016.00
2018-05-31T11:59:18.485Z,8052.00
2018-05-31T12:00:18.421Z,8056.00
2018-05-31T12:01:18.355Z,8020.00
2018-05-31T12:02:18.289Z,8016.00
2018-05-31T12:03:18.226Z,8116.00
2018-05-31T12:04:18.162Z,8164.00
2018-05-31T12:05:18.095Z,8428.00
2018-05-31T12:06:18.030Z,8568.00
2018-05-31T12:07:17.963Z,8660.00
2018-05-31T12:08:17.982Z,8696.00
2018-05-31T12:09:17.834Z,8548.00
2018-05-31T12:10:17.769Z,7136.00
2018-05-31T12:11:17.750Z,7056.00
2018-05-31T12:12:17.688Z,7036.00
2018-05-31T12:13:17.577Z,6976.00
2018-05-31T12:14:17.512Z,6988.00
2018-05-31T12:15:17.445Z,7836.00
2018-05-31T12:16:17.381Z,9572.00
2018-05-31T12:17:17.349Z,9984.00
2018-05-31T12:18:17.261Z,10208.00
2018-05-31T12:19:17.187Z,9972.00
2018-05-31T12:20:17.144Z,9920.00
2018-05-31T12:21:17.064Z,9648.00
2018-05-31T12:22:16.994Z,9636.00
2018-05-31T12:23:16.928Z,9560.00
2018-05-31T12:24:16.863Z,9568.00
2018-05-31T12:25:16.796Z,9476.00
2018-05-31T12:26:16.741Z,9436.00
2018-05-31T12:27:16.668Z,9424.00
2018-05-31T12:28:16.604Z,9488.00
2018-05-31T12:29:16.539Z,9504.00
2018-05-31T12:30:16.472Z,9488.00
2018-05-31T12:31:16.411Z,9444.00
2018-05-31T12:32:16.391Z,9496.00
2018-05-31T12:33:16.282Z,9500.00
2018-05-31T12:34:16.216Z,9524.00
2018-05-31T12:35:16.152Z,9476.00
2018-05-31T12:36:16.088Z,9428.00
2018-05-31T12:37:16.025Z,9372.00
2018-05-31T12:38:15.959Z,9396.00
2018-05-31T12:39:15.916Z,9392.00
2018-05-31T12:40:15.839Z,9424.00
2018-05-31T12:41:15.767Z,9468.00
2018-05-31T12:42:15.702Z,9500.00
2018-05-31T12:43:15.637Z,9496.00
2018-05-31T12:44:15.573Z,9536.00
2018-05-31T12:45:15.509Z,9568.00
2018-05-31T12:46:15.445Z,9568.00
2018-05-31T12:47:15.381Z,9660.00
2018-05-31T12:48:15.317Z,9732.00
2018-05-31T12:49:15.254Z,9672.00
2018-05-31T12:50:15.189Z,9608.00
2018-05-31T12:51:15.136Z,9620.00
2018-05-31T12:52:15.080Z,9676.00
2018-05-31T12:53:14.998Z,9716.00
2018-05-31T12:54:14.934Z,9744.00
2018-05-31T12:55:14.875Z,9868.00
2018-05-31T12:56:14.820Z,9936.00
2018-05-31T12:57:14.797Z,10144.00
2018-05-31T12:58:14.696Z,10212.00
2018-05-31T12:59:14.651Z,10108.00
2018-05-31T13:00:14.716Z,10028.00
2018-05-31T13:01:14.568Z,10040.00
2018-05-31T13:02:14.778Z,10000.00
2018-05-31T13:03:14.796Z,9984.00
2018-05-31T13:04:14.316Z,9920.00
2018-05-31T13:05:14.261Z,9976.00
2018-05-31T13:06:14.194Z,9972.00
2018-05-31T13:07:14.128Z,10040.00
2018-05-31T13:08:14.073Z,10104.00
2018-05-31T13:09:14.011Z,10236.00
2018-05-31T13:10:13.952Z,10356.00
2018-05-31T13:11:13.889Z,10388.00
2018-05-31T13:12:13.829Z,10344.00
2018-05-31T13:13:13.777Z,10384.00
2018-05-31T13:14:13.709Z,10480.00
2018-05-31T13:15:13.648Z,10656.00
2018-05-31T13:16:13.589Z,10928.00
2018-05-31T13:17:13.532Z,11324.00
2018-05-31T13:18:13.468Z,11936.00
2018-05-31T13:19:13.425Z,12392.00
2018-05-31T13:20:13.355Z,12796.00
2018-05-31T13:21:13.293Z,12564.00
2018-05-31T13:22:13.231Z,11840.00
2018-05-31T13:23:13.187Z,11172.00
2018-05-31T13:24:13.112Z,11020.00
2018-05-31T13:25:13.088Z,10796.00
2018-05-31T13:26:12.988Z,10640.00
2018-05-31T13:27:12.928Z,10652.00
2018-05-31T13:28:12.868Z,10640.00
2018-05-31T13:29:12.806Z,10384.00
2018-05-31T13:30:12.749Z,9968.00
2018-05-31T13:31:12.684Z,9784.00
2018-05-31T13:32:12.625Z,9680.00
2018-05-31T13:33:12.566Z,9592.00
2018-05-31T13:34:12.500Z,9560.00
2018-05-31T13:35:12.443Z,9468.00
2018-05-31T13:36:12.386Z,9432.00
2018-05-31T13:37:12.317Z,9420.00
2018-05-31T13:38:12.265Z,9360.00
2018-05-31T13:39:12.196Z,9292.00
2018-05-31T13:40:12.139Z,9368.00
2018-05-31T13:41:12.085Z,9456.00
2018-05-31T13:42:12.013Z,9516.00
2018-05-31T13:43:12.016Z,9548.00
2018-05-31T13:44:11.925Z,9556.00
2018-05-31T13:45:11.840Z,9512.00
2018-05-31T13:46:11.763Z,9460.00
2018-05-31T13:47:11.704Z,9476.00
2018-05-31T13:48:11.642Z,9508.00
2018-05-31T13:49:11.584Z,9632.00
2018-05-31T13:50:11.517Z,9884.00
2018-05-31T13:51:11.459Z,9936.00
2018-05-31T13:52:11.397Z,9852.00
2018-05-31T13:53:11.333Z,9876.00
2018-05-31T13:54:11.268Z,9752.00
2018-05-31T13:55:11.211Z,9632.00
2018-05-31T13:56:11.144Z,9812.00
2018-05-31T13:57:11.083Z,10096.00
2018-05-31T13:58:11.025Z,10216.00
2018-05-31T13:59:10.989Z,10292.00
2018-05-31T14:00:10.896Z,10384.00
2018-05-31T14:01:10.863Z,10372.00
2018-05-31T14:02:10.772Z,10316.00
2018-05-31T14:03:10.713Z,10276.00
2018-05-31T14:04:10.649Z,10396.00
2018-05-31T14:05:10.594Z,10340.00
2018-05-31T14:06:10.530Z,8972.00
2018-05-31T14:07:10.960Z,9040.00
2018-05-31T14:08:10.401Z,10460.00
2018-05-31T14:09:10.978Z,10472.00
2018-05-31T14:10:10.961Z,10472.00
2018-05-31T14:11:10.215Z,10376.00
2018-05-31T14:12:10.152Z,9924.00
2018-05-31T14:13:10.974Z,10484.00
2018-05-31T14:14:10.033Z,10592.00
2018-05-31T14:15:09.962Z,10704.00
2018-05-31T14:16:10.536Z,10616.00
2018-05-31T14:17:09.839Z,9992.00
2018-05-31T14:18:10.464Z,9352.00
2018-05-31T14:19:09.713Z,9068.00
2018-05-31T14:20:10.465Z,9076.00
2018-05-31T14:21:09.593Z,9156.00
2018-05-31T14:22:09.527Z,9192.00
2018-05-31T14:23:10.467Z,9184.00
2018-05-31T14:24:09.967Z,9132.00
2018-05-31T14:25:09.987Z,8600.00
2018-05-31T14:26:09.278Z,9008.00
2018-05-31T14:27:09.227Z,9456.00
2018-05-31T14:28:09.152Z,9444.00
2018-05-31T14:29:09.969Z,9440.00
2018-05-31T14:30:09.081Z,9584.00
2018-05-31T14:31:08.964Z,9700.00
2018-05-31T14:32:08.910Z,9852.00
2018-05-31T14:33:08.840Z,9308.00
2018-05-31T14:34:08.779Z,11140.00
2018-05-31T14:35:09.479Z,11144.00
2018-05-31T14:36:09.555Z,10992.00
2018-05-31T14:37:08.609Z,10956.00
2018-05-31T14:38:08.530Z,10776.00
2018-05-31T14:39:08.978Z,10560.00
2018-05-31T14:40:08.972Z,8472.00
2018-05-31T14:41:08.342Z,7544.00
2018-05-31T14:42:08.973Z,7044.00
2018-05-31T14:43:08.992Z,7396.00
2018-05-31T14:44:08.973Z,6852.00
2018-05-31T14:45:08.100Z,6280.00
2018-05-31T14:46:08.038Z,6120.00
2018-05-31T14:47:08.475Z,6540.00
2018-05-31T14:48:07.919Z,6288.00
2018-05-31T14:49:08.493Z,5800.00
2018-05-31T14:50:07.783Z,6112.00
2018-05-31T14:51:08.491Z,6088.00
2018-05-31T14:52:07.656Z,6112.00
2018-05-31T14:53:07.594Z,6000.00
2018-05-31T14:54:07.529Z,5904.00
2018-05-31T14:55:07.531Z,5548.00
2018-05-31T14:56:07.404Z,5272.00
2018-05-31T14:57:07.341Z,5284.00
2018-05-31T14:58:07.977Z,5420.00
2018-05-31T14:59:07.213Z,6016.00
2018-05-31T15:00:07.981Z,7352.00
2018-05-31T15:01:07.979Z,10036.00
2018-05-31T15:02:07.025Z,10132.00
2018-05-31T15:03:06.962Z,9936.00
2018-05-31T15:04:07.549Z,9976.00
2018-05-31T15:05:06.840Z,10196.00
2018-05-31T15:06:06.773Z,10396.00
2018-05-31T15:07:06.710Z,10072.00
2018-05-31T15:08:06.649Z,6400.00
2018-05-31T15:09:06.585Z,5448.00
2018-05-31T15:10:06.529Z,5080.00
2018-05-31T15:11:06.464Z,4716.00
2018-05-31T15:12:06.399Z,4760.00
2018-05-31T15:13:06.368Z,4832.00
2018-05-31T15:14:06.284Z,5152.00
2018-05-31T15:15:06.213Z,5564.00
2018-05-31T15:16:06.986Z,5084.00
2018-05-31T15:17:06.986Z,4952.00
2018-05-31T15:18:06.078Z,5704.00
2018-05-31T15:19:05.964Z,5556.00
2018-05-31T15:20:05.959Z,5376.00
2018-05-31T15:21:06.489Z,5240.00
2018-05-31T15:22:06.484Z,5284.00
2018-05-31T15:23:05.712Z,5332.00
2018-05-31T15:24:06.485Z,5332.00
2018-05-31T15:25:05.588Z,5340.00
2018-05-31T15:26:06.487Z,5360.00
2018-05-31T15:27:05.990Z,5284.00
2018-05-31T15:28:05.988Z,5380.00
2018-05-31T15:29:05.342Z,5744.00
2018-05-31T15:30:05.270Z,6004.00
2018-05-31T15:31:05.986Z,6548.00
2018-05-31T15:32:05.155Z,8204.00
2018-05-31T15:33:05.081Z,12160.00
2018-05-31T15:34:05.995Z,29600.00
2018-05-31T15:35:05.494Z,37728.00
2018-05-31T15:36:05.585Z,41184.00
2018-05-31T15:37:04.829Z,40192.00
2018-05-31T15:38:05.490Z,37504.00
2018-05-31T15:39:04.704Z,21696.00
2018-05-31T15:40:05.491Z,6924.00
2018-05-31T15:41:04.581Z,5812.00
2018-05-31T15:42:05.504Z,4712.00
2018-05-31T15:43:04.456Z,3972.00
2018-05-31T15:44:04.397Z,3728.00
2018-05-31T15:45:04.996Z,3576.00
2018-05-31T15:46:04.269Z,3440.00
2018-05-31T15:47:04.278Z,3332.00
2018-05-31T15:48:04.993Z,3236.00
2018-05-31T15:49:04.081Z,3176.00
2018-05-31T15:50:04.159Z,3164.00
2018-05-31T15:51:04.493Z,3120.00
2018-05-31T15:52:04.499Z,3056.00
2018-05-31T15:53:03.838Z,3024.00
2018-05-31T15:54:03.772Z,3036.00
2018-05-31T15:55:04.494Z,3048.00
2018-05-31T15:56:05.526Z,3052.00
2018-05-31T15:57:03.607Z,3048.00
2018-05-31T15:58:03.518Z,3016.00
2018-05-31T15:59:04.017Z,2992.00
2018-05-31T16:00:03.395Z,2956.00
2018-05-31T16:01:03.329Z,2912.00
2018-05-31T16:02:03.263Z,2864.00
2018-05-31T16:03:04.028Z,2776.00
2018-05-31T16:04:03.138Z,2684.00
2018-05-31T16:05:03.082Z,2644.00
2018-05-31T16:06:03.010Z,2616.00
2018-05-31T16:07:03.521Z,2620.00
2018-05-31T16:08:02.884Z,2616.00
2018-05-31T16:09:03.500Z,2592.00
2018-05-31T16:10:03.504Z,2588.00
2018-05-31T16:11:03.501Z,2524.00
2018-05-31T16:12:02.626Z,2600.00
2018-05-31T16:13:02.578Z,2572.00
2018-05-31T16:14:02.495Z,2528.00
2018-05-31T16:15:03.006Z,2504.00
2018-05-31T16:16:02.377Z,2452.00
2018-05-31T16:17:03.026Z,2436.00
2018-05-31T16:18:02.244Z,2428.00
2018-05-31T16:19:02.172Z,2424.00
2018-05-31T16:20:02.168Z,2420.00
2018-05-31T16:21:02.046Z,2440.00
2018-05-31T16:22:01.975Z,2472.00
2018-05-31T16:23:02.505Z,2496.00
2018-05-31T16:24:02.504Z,2536.00
2018-05-31T16:25:01.778Z,2572.00
2018-05-31T16:26:01.716Z,2628.00
2018-05-31T16:27:01.656Z,2660.00
2018-05-31T16:28:01.585Z,2656.00
2018-05-31T16:29:01.519Z,2644.00
2018-05-31T16:30:01.452Z,2608.00
2018-05-31T16:31:01.389Z,2580.00
2018-05-31T16:32:02.010Z,2552.00
2018-05-31T16:33:01.257Z,2508.00
2018-05-31T16:34:02.014Z,2448.00
2018-05-31T16:35:01.131Z,2408.00
2018-05-31T16:36:01.065Z,2376.00
2018-05-31T16:37:01.010Z,2356.00
2018-05-31T16:38:01.510Z,2304.00
2018-05-31T16:39:01.509Z,2240.00
2018-05-31T16:40:00.798Z,2180.00
2018-05-31T16:41:01.513Z,2104.00
2018-05-31T16:42:01.524Z,2048.00
2018-05-31T16:43:00.601Z,2008.00
2018-05-31T16:44:00.557Z,1956.00
2018-05-31T16:45:00.474Z,1896.00
2018-05-31T16:46:00.402Z,1836.00
2018-05-31T16:47:00.333Z,1760.00
2018-05-31T16:48:00.268Z,1700.00
2018-05-31T16:49:01.027Z,1636.00
2018-05-31T16:50:00.140Z,1572.00
2018-05-31T16:51:00.075Z,1504.00
2018-05-31T16:52:00.016Z,1440.00
2018-05-31T16:53:00.519Z,1384.00
2018-05-31T16:54:00.514Z,1344.00
2018-05-31T16:54:59.812Z,1308.00
2018-05-31T16:55:59.737Z,1284.00
2018-05-31T16:56:59.671Z,1260.00
2018-05-31T16:58:00.518Z,1240.00
2018-05-31T16:58:59.537Z,1212.00
2018-05-31T17:00:00.020Z,1188.00
2018-05-31T17:00:59.403Z,1136.00
2018-05-31T17:01:59.337Z,1084.00
2018-05-31T17:03:00.017Z,1036.00
2018-05-31T17:04:00.020Z,996.00
2018-05-31T17:05:00.024Z,972.00
2018-05-31T17:05:59.071Z,952.00
2018-05-31T17:06:59.004Z,936.00
2018-05-31T17:07:58.939Z,916.00
2018-05-31T17:08:58.882Z,880.00
2018-05-31T17:09:59.520Z,836.00
2018-05-31T17:10:59.539Z,784.00
2018-05-31T17:11:59.521Z,732.00
2018-05-31T17:12:59.559Z,684.00
2018-05-31T17:13:58.542Z,656.00
2018-05-31T17:14:59.088Z,648.00
2018-05-31T17:15:59.031Z,656.00
2018-05-31T17:16:58.346Z,676.00
2018-05-31T17:17:58.276Z,692.00
2018-05-31T17:18:58.208Z,700.00
2018-05-31T17:19:58.138Z,684.00
2018-05-31T17:20:58.069Z,616.00
2018-05-31T17:21:58.010Z,496.00
2018-05-31T17:22:57.936Z,380.00
2018-05-31T17:23:57.868Z,316.00
2018-05-31T17:24:58.525Z,288.00
2018-05-31T17:25:58.528Z,280.00
2018-05-31T17:26:58.530Z,288.00
2018-05-31T17:27:57.602Z,304.00
2018-05-31T17:28:58.527Z,316.00
2018-05-31T17:29:57.474Z,320.00
2018-05-31T17:30:58.116Z,320.00
2018-05-31T17:31:58.028Z,316.00
2018-05-31T17:32:57.270Z,320.00
2018-05-31T17:33:57.201Z,332.00
2018-05-31T17:34:58.112Z,352.00
2018-05-31T17:35:58.035Z,372.00
2018-05-31T17:36:57.528Z,384.00
2018-05-31T17:37:56.930Z,368.00
2018-05-31T17:38:56.864Z,344.00
2018-05-31T17:39:57.530Z,312.00
2018-05-31T17:40:56.727Z,292.00
2018-05-31T17:41:57.531Z,272.00
2018-05-31T17:42:56.617Z,264.00
2018-05-31T17:43:58.036Z,268.00
2018-05-31T17:44:56.460Z,276.00
2018-05-31T17:45:56.390Z,284.00
2018-05-31T17:46:56.323Z,288.00
2018-05-31T17:47:57.035Z,280.00
2018-05-31T17:48:56.188Z,272.00
2018-05-31T17:49:57.033Z,264.00
2018-05-31T17:50:56.058Z,260.00
2018-05-31T17:51:55.986Z,256.00
2018-05-31T17:52:55.919Z,244.00
2018-05-31T17:53:55.862Z,248.00